Time;durP1;ratioP1;P1;durP2;ratioP2;P2;SDS_P1;SDS_P2;PMS_P1;PMS_P2;Temp;Humidity;BMP_temperature;BMP_pressure;BME280_temperature;BME280_humidity;BME280_pressure;Samples;Min_cycle;Max_cycle;Signal;HPM_P1;HPM_P2
2022/08/12 00:43:58;;;;;;;4.70;3.88;;;;;;;21.10;47.09;99297.28;5059623;28;20051;-79
2022/08/12 00:46:37;;;;;;;5.13;3.95;;;;;;;21.08;47.08;99304.94;5063693;28;20032;-79
2022/08/12 00:49:03;;;;;;;7.10;3.78;;;;;;;21.19;47.15;99309.03;5058340;28;20040;-79
2022/08/12 00:54:13;;;;;;;4.95;4.45;;;;;;;20.76;47.48;99292.31;5057565;28;20197;-79
2022/08/12 00:56:38;;;;;;;6.28;3.95;;;;;;;20.98;47.51;99298.91;5060967;28;20535;-79
2022/08/12 00:59:04;;;;;;;4.70;3.88;;;;;;;20.89;47.19;99280.66;5059152;28;20036;-79
2022/08/12 01:01:34;;;;;;;5.07;4.20;;;;;;;20.72;48.21;99307.59;5051182;28;20043;-79
2022/08/12 01:12:19;;;;;;;5.50;4.45;;;;;;;21.04;47.58;99290.38;5061658;28;20075;-79
2022/08/12 01:14:44;;;;;;;5.47;4.10;;;;;;;20.86;47.58;99304.84;5059263;28;20123;-80
2022/08/12 01:17:10;;;;;;;4.30;3.90;;;;;;;20.91;47.41;99305.56;5062298;28;20064;-80
2022/08/12 01:19:36;;;;;;;5.15;4.20;;;;;;;20.68;48.02;99295.75;5063764;28;20111;-79
2022/08/12 01:22:26;;;;;;;4.95;3.72;;;;;;;20.73;48.00;99314.63;5074161;28;20055;-80
2022/08/12 01:25:02;;;;;;;4.07;3.67;;;;;;;20.24;49.13;99301.00;5059517;28;20024;-79
2022/08/12 01:27:32;;;;;;;4.22;3.83;;;;;;;20.45;48.79;99320.38;5074742;28;20115;-79
2022/08/12 01:30:00;;;;;;;6.18;4.03;;;;;;;20.39;48.71;99321.56;5063809;28;20115;-79
2022/08/12 01:32:27;;;;;;;4.70;4.25;;;;;;;20.42;48.58;99319.06;5062944;28;20054;-79
2022/08/12 01:35:00;;;;;;;4.63;4.32;;;;;;;20.17;48.74;99316.81;5062488;28;20033;-79
2022/08/12 01:37:26;;;;;;;6.03;4.45;;;;;;;20.34;48.61;99322.47;5079956;28;20067;-79
2022/08/12 01:39:55;;;;;;;4.53;4.10;;;;;;;20.42;48.57;99310.13;5059290;28;20048;-79
2022/08/12 01:42:21;;;;;;;6.07;4.55;;;;;;;20.42;48.81;99315.56;5059595;28;20063;-79
2022/08/12 01:44:54;;;;;;;5.03;4.00;;;;;;;20.17;48.94;99322.22;5064423;28;20035;-79
2022/08/12 01:47:56;;;;;;;5.78;3.97;;;;;;;20.39;48.75;99319.66;5061851;28;20124;-79
2022/08/12 01:50:39;;;;;;;4.13;3.70;;;;;;;20.10;48.41;99297.41;5055683;28;20048;-80
2022/08/12 01:53:10;;;;;;;4.40;4.10;;;;;;;20.12;49.02;99314.19;5060019;28;20035;-79
2022/08/12 01:55:44;;;;;;;4.88;4.18;;;;;;;20.18;49.20;99313.78;5060070;28;20032;-79
2022/08/12 01:58:26;;;;;;;4.95;3.92;;;;;;;20.40;48.85;99315.06;5063057;28;20024;-80
2022/08/12 02:01:08;;;;;;;6.18;3.92;;;;;;;20.00;49.39;99295.72;5054969;28;20029;-79
2022/08/12 02:13:02;;;;;;;4.35;3.95;;;;;;;20.14;49.25;99315.50;5060010;28;20051;-79
2022/08/12 02:15:52;;;;;;;5.57;3.83;;;;;;;19.97;49.62;99315.25;5054413;28;20066;-79
2022/08/12 02:18:27;;;;;;;4.38;3.83;;;;;;;19.79;49.76;99304.50;5057753;28;20483;-79
2022/08/12 02:21:02;;;;;;;7.50;4.28;;;;;;;20.02;49.19;99311.66;5058838;28;20039;-79
2022/08/12 02:23:30;;;;;;;5.57;4.65;;;;;;;19.67;51.66;99312.28;5061767;28;20024;-80
2022/08/12 02:26:02;;;;;;;4.00;3.70;;;;;;;19.43;50.98;99305.09;5044775;28;20037;-79
2022/08/12 02:28:28;;;;;;;8.93;4.72;;;;;;;18.96;53.22;99299.78;5078701;28;20060;-79
2022/08/12 02:30:59;;;;;;;7.93;5.45;;;;;;;18.84;53.34;99312.94;5059601;28;20056;-79
2022/08/12 02:33:25;;;;;;;5.88;4.65;;;;;;;19.06;51.46;99302.38;5060605;28;20037;-79
2022/08/12 02:35:51;;;;;;;4.38;3.90;;;;;;;19.40;51.00;99318.38;5045896;28;20032;-79
2022/08/12 02:38:20;;;;;;;5.45;4.65;;;;;;;19.61;50.59;99313.47;5044474;28;20651;-79
2022/08/12 02:40:50;;;;;;;7.15;5.05;;;;;;;19.84;50.15;99312.53;5057343;28;20033;-79
2022/08/12 02:43:40;;;;;;;6.78;4.32;;;;;;;19.85;49.58;99314.13;5061946;28;20143;-79
2022/08/12 02:46:08;;;;;;;4.72;4.20;;;;;;;19.78;50.06;99311.81;5055559;28;20029;-79
2022/08/12 02:48:39;;;;;;;6.18;5.00;;;;;;;19.47;51.13;99310.69;5060177;28;20028;-79
2022/08/12 02:51:08;;;;;;;4.50;4.13;;;;;;;19.43;50.84;99301.56;5065704;28;20033;-79
2022/08/12 02:53:36;;;;;;;6.97;4.20;;;;;;;19.65;50.46;99309.06;5060636;28;20036;-79
2022/08/12 02:56:02;;;;;;;5.60;4.05;;;;;;;19.43;50.44;99306.97;5060700;28;20024;-79
2022/08/12 02:58:30;;;;;;;7.20;4.15;;;;;;;19.37;51.01;99302.75;5062975;28;20020;-79
2022/08/12 03:00:56;;;;;;;5.45;3.90;;;;;;;19.26;50.56;99283.09;5044698;28;20094;-79
2022/08/12 03:03:28;;;;;;;4.93;4.35;;;;;;;19.37;50.77;99300.81;5059278;28;20063;-79
2022/08/12 03:06:02;;;;;;;4.60;4.18;;;;;;;19.01;51.77;99294.31;5063046;28;20562;-79
2022/08/12 03:08:31;;;;;;;10.65;5.30;;;;;;;19.11;52.57;99299.56;5062999;28;20025;-79
2022/08/12 03:11:02;;;;;;;5.85;4.55;;;;;;;18.96;51.97;99291.66;5062556;28;20484;-79
2022/08/12 03:13:29;;;;;;;5.18;4.68;;;;;;;18.84;52.28;99296.72;5045179;28;20034;-79
2022/08/12 03:15:56;;;;;;;7.35;5.57;;;;;;;18.73;53.67;99300.66;5057271;28;20030;-79
2022/08/12 03:18:30;;;;;;;6.65;4.15;;;;;;;19.05;51.39;99287.22;5063970;28;20115;-79
2022/08/12 03:21:00;;;;;;;4.75;4.30;;;;;;;18.88;51.46;99292.31;5068162;28;21857;-80
2022/08/12 03:23:27;;;;;;;4.03;3.72;;;;;;;19.13;51.25;99294.66;5081863;28;20078;-79
2022/08/12 03:25:55;;;;;;;8.30;5.18;;;;;;;18.46;54.66;99301.25;5061741;28;20083;-80
2022/08/12 03:31:07;;;;;;;4.57;4.20;;;;;;;18.46;52.73;99308.53;5062672;28;20051;-79
2022/08/12 03:33:36;;;;;;;4.50;4.10;;;;;;;18.51;52.73;99301.19;5066016;28;20028;-79
2022/08/12 03:36:05;;;;;;;7.00;4.47;;;;;;;18.73;51.68;99303.34;5069161;28;20036;-79
2022/08/12 03:38:35;;;;;;;5.00;4.60;;;;;;;18.82;51.90;99289.97;5048176;28;20033;-79
2022/08/12 04:00:48;;;;;;;;;;;;;;;18.37;54.40;99327.25;5068579;28;20047;-80
2022/08/12 04:05:58;;;;;;;6.10;4.45;;;;;;;18.87;51.74;99325.09;5070107;28;20033;-79
2022/08/12 04:08:25;;;;;;;5.45;4.93;;;;;;;18.96;51.27;99317.94;5059551;28;20495;-79
2022/08/12 04:13:36;;;;;;;5.18;4.70;;;;;;;18.74;51.93;99320.38;5062853;28;20459;-80
2022/08/12 04:16:05;;;;;;;5.72;5.18;;;;;;;18.20;54.58;99318.00;5068672;28;20501;-79
2022/08/12 04:18:31;;;;;;;5.28;4.65;;;;;;;17.94;54.77;99325.56;5062619;28;20048;-79
2022/08/12 04:20:57;;;;;;;5.63;4.80;;;;;;;18.40;53.01;99298.84;5062362;28;21305;-79
2022/08/12 04:23:24;;;;;;;5.50;5.00;;;;;;;18.39;52.68;99308.06;5058168;28;20523;-79
2022/08/12 04:25:50;;;;;;;5.30;4.80;;;;;;;18.53;52.96;99317.94;5057288;28;20059;-79
2022/08/12 04:28:24;;;;;;;7.00;5.28;;;;;;;18.03;54.83;99317.63;5052321;28;20029;-79
2022/08/12 04:30:50;;;;;;;6.38;5.00;;;;;;;18.34;53.41;99337.84;5080577;28;20082;-79
2022/08/12 04:33:17;;;;;;;6.32;5.72;;;;;;;18.18;53.66;99333.69;5064774;28;20047;-78
2022/08/12 04:35:43;;;;;;;9.18;4.40;;;;;;;18.80;52.06;99332.75;5058916;28;20074;-78
2022/08/12 04:38:09;;;;;;;5.38;4.88;;;;;;;18.83;51.98;99330.25;5065513;28;20028;-78
2022/08/12 04:40:38;;;;;;;4.72;4.25;;;;;;;18.41;54.16;99335.63;5062416;28;20028;-78
2022/08/12 04:43:04;;;;;;;5.53;4.90;;;;;;;17.99;55.24;99320.13;5062052;28;20032;-78
2022/08/12 04:45:31;;;;;;;8.68;4.82;;;;;;;17.78;58.14;99334.88;5062960;28;20494;-78
2022/08/12 04:47:57;;;;;;;10.05;4.65;;;;;;;17.66;58.73;99327.16;5065897;28;20024;-78
2022/08/12 04:50:24;;;;;;;5.55;5.05;;;;;;;17.60;59.18;99340.97;5068266;28;20490;-78
2022/08/12 04:52:50;;;;;;;5.60;4.78;;;;;;;17.67;56.48;99330.66;5060377;28;20028;-78
2022/08/12 04:55:16;;;;;;;10.63;5.53;;;;;;;17.65;59.17;99338.22;5066466;28;20036;-78
2022/08/12 04:57:42;;;;;;;5.78;5.20;;;;;;;17.51;59.68;99346.16;5068262;28;20029;-78
2022/08/12 05:00:10;;;;;;;4.40;4.00;;;;;;;18.03;55.46;99342.75;5063980;28;20111;-78
2022/08/12 05:02:36;;;;;;;5.95;5.35;;;;;;;17.72;58.71;99336.81;5079195;28;20043;-78
2022/08/12 05:05:04;;;;;;;6.25;4.30;;;;;;;18.32;54.74;99342.75;5065851;28;20013;-78
2022/08/12 05:07:30;;;;;;;9.63;5.05;;;;;;;17.86;59.25;99340.50;5060915;28;20043;-78
2022/08/12 05:09:55;;;;;;;5.90;4.47;;;;;;;17.90;57.04;99344.22;5064286;28;20020;-78
2022/08/12 05:12:22;;;;;;;6.55;4.80;;;;;;;17.69;60.20;99339.28;5057642;28;20733;-78
2022/08/12 05:14:49;;;;;;;8.38;5.18;;;;;;;17.58;61.91;99348.56;5063688;28;20028;-78
2022/08/12 05:17:15;;;;;;;7.57;5.00;;;;;;;17.53;62.17;99344.00;5043755;28;20036;-78
2022/08/12 05:19:42;;;;;;;6.18;5.13;;;;;;;17.54;61.52;99340.19;5058784;28;20113;-78
2022/08/12 05:22:08;;;;;;;5.47;4.97;;;;;;;17.51;62.05;99348.88;5059941;28;20044;-78
2022/08/12 05:24:33;;;;;;;7.57;6.20;;;;;;;17.44;62.48;99342.94;5052407;28;20029;-78
2022/08/12 05:26:59;;;;;;;9.50;5.97;;;;;;;17.40;62.04;99349.19;5063529;28;20472;-78
2022/08/12 05:29:28;;;;;;;9.02;7.45;;;;;;;17.31;62.18;99338.19;5047652;28;20033;-78
2022/08/12 05:31:55;;;;;;;10.60;7.20;;;;;;;17.23;62.49;99344.19;5060826;28;20021;-78
2022/08/12 05:34:20;;;;;;;10.68;7.70;;;;;;;17.17;62.92;99338.00;5054580;28;20028;-78
2022/08/12 05:36:45;;;;;;;10.98;8.20;;;;;;;17.29;62.74;99344.94;5081792;28;20051;-78
2022/08/12 05:39:11;;;;;;;12.50;7.63;;;;;;;17.27;63.43;99347.94;5042311;28;20039;-78
2022/08/12 05:41:36;;;;;;;8.65;6.25;;;;;;;17.31;63.50;99356.25;5043234;28;20040;-78
2022/08/12 05:44:08;;;;;;;15.43;7.25;;;;;;;17.18;62.76;99342.31;5056366;28;20047;-78
2022/08/12 05:46:35;;;;;;;12.52;6.80;;;;;;;17.42;64.01;99355.09;5053363;28;20028;-78
2022/08/12 05:49:02;;;;;;;13.65;7.18;;;;;;;17.40;63.21;99350.00;5055515;28;20032;-78
2022/08/12 05:51:31;;;;;;;11.95;7.53;;;;;;;17.37;63.17;99361.34;5059041;28;20032;-78
2022/08/12 05:53:57;;;;;;;12.00;7.53;;;;;;;17.44;63.79;99364.53;5042632;28;20544;-79
2022/08/12 05:56:29;;;;;;;10.18;6.57;;;;;;;17.46;62.95;99356.16;5053657;28;20056;-78
2022/08/12 05:58:56;;;;;;;11.65;7.78;;;;;;;17.49;62.92;99361.81;5054662;28;20056;-78
2022/08/12 06:01:24;;;;;;;8.45;6.85;;;;;;;17.55;62.79;99360.72;5050408;28;20039;-78
2022/08/12 06:03:51;;;;;;;11.18;7.43;;;;;;;17.44;62.91;99367.25;5065840;28;20044;-78
2022/08/12 06:06:18;;;;;;;10.93;7.30;;;;;;;17.36;63.30;99359.75;5054228;28;20032;-78
2022/08/12 06:08:46;;;;;;;20.23;7.97;;;;;;;17.62;64.40;99365.78;5053022;28;20081;-78
2022/08/12 06:11:14;;;;;;;15.13;7.45;;;;;;;17.51;63.05;99350.75;5055196;28;20116;-78
2022/08/12 06:13:41;;;;;;;13.45;7.00;;;;;;;17.81;62.91;99374.81;5055443;28;20027;-78
2022/08/12 06:16:08;;;;;;;8.23;7.13;;;;;;;17.85;62.14;99373.97;5058843;28;20040;-78
2022/08/12 06:18:38;;;;;;;11.75;7.97;;;;;;;17.71;62.22;99375.69;5054629;28;20472;-78
2022/08/12 06:21:06;;;;;;;16.02;8.43;;;;;;;17.63;62.39;99362.81;5073765;28;20074;-78
2022/08/12 06:23:31;;;;;;;8.40;7.03;;;;;;;17.95;62.47;99363.06;5040549;28;20484;-78
2022/08/12 06:25:57;;;;;;;9.48;7.10;;;;;;;17.93;61.41;99370.66;5061957;28;20032;-78
2022/08/12 06:28:23;;;;;;;10.93;6.55;;;;;;;18.00;62.52;99372.25;5060032;28;20058;-78
2022/08/12 06:30:50;;;;;;;8.73;6.68;;;;;;;17.96;62.89;99348.50;5058257;28;20334;-78
2022/08/12 06:33:17;;;;;;;8.65;6.82;;;;;;;18.05;62.33;99375.69;5055455;28;20039;-78
2022/08/12 06:35:43;;;;;;;13.85;6.60;;;;;;;18.14;61.72;99360.47;5052755;28;20028;-78
2022/08/12 06:38:17;;;;;;;8.68;6.25;;;;;;;18.09;61.79;99368.63;5053491;28;20256;-79
2022/08/12 06:43:29;;;;;;;12.15;5.88;;;;;;;18.28;61.28;99366.03;5055396;28;20044;-78
2022/08/12 06:45:56;;;;;;;15.20;5.70;;;;;;;18.07;60.69;99359.19;5050596;28;20044;-78
2022/08/12 06:48:26;;;;;;;7.63;5.40;;;;;;;19.26;56.66;99366.22;5055116;28;20029;-78
2022/08/12 06:50:56;;;;;;;9.35;5.80;;;;;;;18.81;60.68;99364.91;5039707;28;20029;-78
2022/08/12 06:53:23;;;;;;;10.18;6.05;;;;;;;18.66;59.28;99359.69;5055670;28;20055;-78
2022/08/12 06:55:49;;;;;;;13.98;6.20;;;;;;;18.76;60.54;99370.41;5052062;28;20037;-78
2022/08/12 06:58:15;;;;;;;9.98;6.10;;;;;;;18.88;60.56;99368.06;5029474;28;20040;-78
2022/08/12 07:00:45;;;;;;;17.67;6.68;;;;;;;18.86;59.39;99359.44;5063406;28;20117;-77
2022/08/12 07:03:16;;;;;;;9.30;5.95;;;;;;;18.82;59.38;99339.47;5051055;28;20027;-77
2022/08/12 07:05:42;;;;;;;6.28;5.65;;;;;;;19.07;57.93;99354.56;5058050;28;20433;-78
2022/08/12 07:08:08;;;;;;;10.38;5.15;;;;;;;19.71;56.88;99359.34;5036352;28;20094;-78
2022/08/12 07:10:39;;;;;;;11.27;5.20;;;;;;;19.52;56.15;99358.56;5058049;28;20028;-78
2022/08/12 07:13:04;;;;;;;12.65;6.32;;;;;;;19.34;56.67;99344.75;5070612;28;20036;-78
2022/08/12 07:15:30;;;;;;;8.43;5.55;;;;;;;19.97;55.95;99363.22;5055892;28;20990;-78
2022/08/12 07:18:14;;;;;;;10.35;5.63;;;;;;;19.57;55.50;99361.19;5058795;28;20127;-78
2022/08/12 07:20:44;;;;;;;4.93;4.43;;;;;;;19.71;56.55;99351.22;5059030;28;20025;-78
2022/08/12 07:23:13;;;;;;;11.10;5.43;;;;;;;19.66;55.85;99360.22;5056452;28;20051;-78
2022/08/12 07:25:39;;;;;;;5.93;4.07;;;;;;;20.26;54.69;99344.06;5057502;28;20021;-79
2022/08/12 07:28:09;;;;;;;6.57;4.57;;;;;;;19.98;55.25;99352.13;5042879;28;20048;-78
2022/08/12 07:30:38;;;;;;;8.75;5.13;;;;;;;20.51;55.37;99365.28;5072084;28;20040;-78
2022/08/12 07:33:07;;;;;;;6.65;5.13;;;;;;;20.21;55.67;99366.63;5041924;28;20082;-78
2022/08/12 07:35:34;;;;;;;6.90;5.15;;;;;;;20.81;52.99;99351.94;5050697;28;20081;-78
2022/08/12 07:38:00;;;;;;;7.35;4.45;;;;;;;21.57;51.28;99361.94;5038836;28;20032;-78
2022/08/12 07:40:28;;;;;;;10.65;4.40;;;;;;;21.31;52.30;99351.94;5056994;28;20020;-78
2022/08/12 07:42:54;;;;;;;8.15;4.10;;;;;;;21.24;53.17;99336.09;5073262;28;20029;-78
2022/08/12 07:45:19;;;;;;;6.10;4.13;;;;;;;20.85;54.26;99350.22;5055269;28;20025;-78
2022/08/12 07:47:46;;;;;;;8.68;4.95;;;;;;;20.85;54.03;99361.06;5054939;28;20822;-78
2022/08/12 07:50:14;;;;;;;12.63;5.38;;;;;;;20.91;54.37;99364.47;5054628;28;20044;-78
2022/08/12 07:52:44;;;;;;;6.75;4.10;;;;;;;20.86;55.05;99342.84;5054542;28;20078;-78
2022/08/12 07:55:10;;;;;;;8.63;4.80;;;;;;;21.16;53.76;99353.09;5057770;28;20032;-78
2022/08/12 07:57:52;;;;;;;7.28;4.50;;;;;;;21.55;52.09;99357.91;5056847;28;20119;-78
2022/08/12 08:00:18;;;;;;;13.23;5.00;;;;;;;21.66;53.77;99359.28;5055025;28;20067;-78
2022/08/12 08:02:43;;;;;;;10.50;4.32;;;;;;;21.64;53.12;99345.19;5072486;28;20048;-78
2022/08/12 08:05:09;;;;;;;4.63;4.07;;;;;;;21.58;52.46;99346.41;5043815;28;20663;-78
2022/08/12 08:07:34;;;;;;;8.95;4.03;;;;;;;21.56;51.66;99344.00;5071414;28;20400;-78
2022/08/12 08:10:05;;;;;;;6.32;3.92;;;;;;;22.04;51.18;99349.66;5038691;28;20385;-78
2022/08/12 08:15:15;;;;;;;10.45;4.32;;;;;;;21.80;51.31;99351.84;5051803;28;20067;-78
2022/08/12 08:17:58;;;;;;;8.15;4.25;;;;;;;21.81;51.79;99349.94;5050211;28;20589;-78
2022/08/12 08:20:27;;;;;;;7.22;4.70;;;;;;;21.76;51.52;99337.28;5040059;28;20105;-78
2022/08/12 08:22:55;;;;;;;7.68;4.22;;;;;;;22.19;50.97;99353.91;5056015;28;20070;-78
2022/08/12 08:25:21;;;;;;;9.55;4.13;;;;;;;22.50;50.88;99356.63;5050479;28;20070;-78
2022/08/12 08:27:47;;;;;;;11.52;5.45;;;;;;;22.17;51.02;99343.31;5048309;28;20392;-78
2022/08/12 08:30:13;;;;;;;9.18;4.60;;;;;;;22.25;52.21;99353.47;5052660;28;20020;-78
2022/08/12 08:32:39;;;;;;;11.43;4.43;;;;;;;22.20;50.67;99331.81;5056005;28;20032;-78
2022/08/12 08:35:09;;;;;;;9.65;4.30;;;;;;;22.45;50.54;99343.13;5057365;28;20044;-78
2022/08/12 08:37:35;;;;;;;9.65;4.60;;;;;;;22.60;49.25;99329.13;5051793;28;20027;-78
2022/08/12 08:42:35;;;;;;;12.70;4.45;;;;;;;22.62;49.46;99348.69;5057941;28;20028;-78
2022/08/12 08:42:45;;;;;;;7.43;4.72;;;;;;;22.73;49.07;99350.81;5053616;28;20041;-78
2022/08/12 08:45:14;;;;;;;7.53;4.00;;;;;;;22.86;48.96;99343.63;5056035;28;20036;-78
2022/08/12 08:47:47;;;;;;;10.25;4.47;;;;;;;22.79;48.13;99340.56;5041694;28;20028;-78
2022/08/12 08:50:14;;;;;;;9.13;3.92;;;;;;;22.99;49.02;99346.22;5053530;28;20528;-78
2022/08/12 08:52:41;;;;;;;8.93;3.92;;;;;;;23.05;47.42;99328.59;5056484;28;20155;-78
2022/08/12 08:55:08;;;;;;;6.93;3.15;;;;;;;23.16;47.33;99325.56;5053889;28;20086;-78
2022/08/12 08:57:34;;;;;;;3.35;3.05;;;;;;;23.34;47.17;99341.66;5053454;28;20029;-78
2022/08/12 09:00:00;;;;;;;3.75;3.03;;;;;;;23.60;45.27;99328.81;5052777;28;20646;-78
2022/08/12 09:02:26;;;;;;;7.75;3.67;;;;;;;23.59;46.45;99329.16;5055937;28;20142;-78
2022/08/12 09:04:51;;;;;;;6.90;3.45;;;;;;;23.54;45.58;99337.47;5054855;28;20044;-78
2022/08/12 09:07:17;;;;;;;6.70;3.05;;;;;;;23.58;45.00;99328.34;5056039;28;20086;-78
2022/08/12 09:09:43;;;;;;;5.97;3.40;;;;;;;23.79;44.66;99317.56;5049642;28;21278;-78
2022/08/12 09:14:53;;;;;;;7.78;3.00;;;;;;;24.19;44.48;99312.69;5053829;28;20447;-78
2022/08/12 09:17:19;;;;;;;4.20;3.03;;;;;;;24.22;45.17;99326.47;5064022;28;20024;-80
2022/08/12 09:19:44;;;;;;;4.18;2.75;;;;;;;24.29;41.93;99312.31;5065109;28;20103;-79
2022/08/12 09:22:10;;;;;;;4.32;2.30;;;;;;;24.43;42.36;99321.09;5043096;28;20034;-79
2022/08/12 09:24:36;;;;;;;4.05;2.55;;;;;;;24.53;41.44;99321.53;5056660;28;20528;-79
2022/08/12 09:27:05;;;;;;;2.85;2.47;;;;;;;24.51;41.17;99315.59;5039500;28;20542;-78
2022/08/12 09:29:34;;;;;;;5.65;2.40;;;;;;;24.78;41.09;99317.09;5056106;28;20048;-79
2022/08/12 09:32:02;;;;;;;6.30;2.55;;;;;;;24.96;40.36;99309.59;5056134;28;21820;-79
2022/08/12 09:34:28;;;;;;;7.75;2.63;;;;;;;24.91;40.02;99307.84;5054830;28;20032;-79
2022/08/12 09:36:54;;;;;;;4.43;2.47;;;;;;;25.08;39.76;99304.19;5051579;28;20055;-79
2022/08/12 09:39:20;;;;;;;6.60;2.70;;;;;;;25.00;38.89;99297.69;5040258;28;20120;-79
2022/08/12 09:45:19;;;;;;;6.63;2.45;;;;;;;25.02;39.46;99309.06;5052816;28;20461;-78
2022/08/12 09:47:15;;;;;;;3.40;2.60;;;;;;;25.38;39.06;99297.53;5056740;28;20170;-79
2022/08/12 09:49:40;;;;;;;7.22;2.53;;;;;;;25.37;39.04;99293.22;5060779;28;20119;-79
2022/08/12 09:52:06;;;;;;;2.83;2.53;;;;;;;25.52;38.38;99291.81;5056462;28;20050;-78
2022/08/12 09:54:31;;;;;;;2.67;2.30;;;;;;;25.18;38.64;99287.44;5026178;28;20032;-78
2022/08/12 09:56:57;;;;;;;4.93;2.65;;;;;;;25.31;39.23;99289.88;5057089;28;20415;-79
2022/08/12 09:59:22;;;;;;;8.48;2.38;;;;;;;25.53;38.94;99266.09;5039538;28;20078;-79
2022/08/12 10:01:48;;;;;;;6.10;2.80;;;;;;;25.70;38.19;99282.31;5056378;28;20408;-78
2022/08/12 10:04:14;;;;;;;2.40;2.05;;;;;;;25.43;38.14;99267.28;5060303;28;20032;-78
2022/08/12 10:06:42;;;;;;;5.90;2.45;;;;;;;25.27;39.04;99249.91;5045166;28;20396;-79
2022/08/12 10:09:09;;;;;;;5.57;2.60;;;;;;;25.16;38.73;99265.09;5058348;28;20055;-79
2022/08/12 10:14:21;;;;;;;5.70;2.42;;;;;;;25.87;37.45;99257.50;5057052;28;20035;-79
2022/08/12 10:16:47;;;;;;;8.20;2.42;;;;;;;25.97;37.76;99254.34;5046655;28;20032;-79
2022/08/12 10:19:17;;;;;;;7.35;2.00;;;;;;;25.83;38.03;99251.13;5042492;28;20508;-79
2022/08/12 10:21:44;;;;;;;8.38;2.88;;;;;;;26.13;37.48;99258.03;5071417;28;20164;-78
2022/08/12 10:24:13;;;;;;;4.40;2.30;;;;;;;25.73;37.18;99248.84;5058231;28;20484;-79
2022/08/12 10:29:46;;;;;;;3.05;2.10;;;;;;;26.05;37.34;99253.44;5056690;28;20704;-79
2022/08/12 10:32:20;;;;;;;4.53;2.25;;;;;;;26.08;37.12;99254.72;5060014;28;20020;-79
2022/08/12 10:34:57;;;;;;;5.03;2.40;;;;;;;25.72;37.51;99236.28;5073488;28;20030;-79
2022/08/12 10:37:22;;;;;;;2.50;2.13;;;;;;;26.85;36.76;99250.94;5053494;28;20455;-79
2022/08/12 10:39:48;;;;;;;5.55;2.20;;;;;;;26.97;35.89;99239.97;5058203;28;20020;-79
2022/08/12 10:45:05;;;;;;;8.63;2.55;;;;;;;26.86;36.29;99247.09;5073898;28;20674;-79
2022/08/12 10:47:32;;;;;;;6.45;2.30;;;;;;;26.83;36.68;99237.59;5080464;28;20139;-78
2022/08/12 10:50:02;;;;;;;2.92;2.33;;;;;;;27.02;36.81;99235.03;5064421;28;20476;-79
2022/08/12 10:52:30;;;;;;;2.80;2.55;;;;;;;27.00;36.78;99236.53;5068714;28;20029;-79
2022/08/12 10:54:57;;;;;;;5.70;2.40;;;;;;;26.81;37.15;99223.47;5063904;28;20032;-79
2022/08/12 10:57:25;;;;;;;6.15;2.60;;;;;;;26.88;36.88;99229.16;5065268;28;20111;-79
2022/08/12 10:59:56;;;;;;;5.18;2.47;;;;;;;27.22;37.37;99222.28;5067993;28;20477;-79
2022/08/12 11:02:23;;;;;;;5.07;2.33;;;;;;;27.62;35.34;99205.78;5064445;28;20063;-79
2022/08/12 11:04:49;;;;;;;6.47;2.33;;;;;;;27.88;35.56;99212.38;5048964;28;20373;-80
2022/08/12 11:07:15;;;;;;;6.22;1.92;;;;;;;27.79;35.57;99199.97;5065172;28;20044;-79
2022/08/12 11:09:41;;;;;;;5.05;2.33;;;;;;;28.28;34.75;99197.69;5078427;28;20499;-79
2022/08/12 11:12:06;;;;;;;6.97;2.45;;;;;;;27.58;34.61;99218.63;5043059;28;20035;-79
2022/08/12 11:14:37;;;;;;;3.70;1.90;;;;;;;27.42;35.34;99211.16;5065640;28;20123;-80
2022/08/12 11:17:06;;;;;;;5.35;2.47;;;;;;;27.73;34.97;99202.19;5051763;28;20030;-79
2022/08/12 11:19:33;;;;;;;4.65;2.22;;;;;;;27.54;34.84;99190.31;5068118;28;20056;-80
2022/08/12 11:21:59;;;;;;;2.65;2.20;;;;;;;27.87;35.33;99199.78;5067638;28;20526;-79
2022/08/12 11:24:25;;;;;;;3.45;1.83;;;;;;;27.93;34.60;99203.88;5063864;28;20104;-80
2022/08/12 11:26:52;;;;;;;4.50;1.88;;;;;;;28.55;34.15;99202.25;5064187;28;20055;-79
2022/08/12 11:29:19;;;;;;;5.45;1.98;;;;;;;28.57;32.84;99199.94;5062603;28;20090;-80
2022/08/12 11:31:45;;;;;;;5.20;1.58;;;;;;;27.87;33.56;99164.13;5065764;28;20040;-79
2022/08/12 11:34:11;;;;;;;3.08;2.08;;;;;;;27.54;33.42;99193.84;5068889;28;20388;-78
2022/08/12 11:36:36;;;;;;;2.25;1.98;;;;;;;27.87;33.47;99188.81;5066795;28;20085;-79
2022/08/12 11:39:02;;;;;;;4.07;2.20;;;;;;;28.76;33.40;99175.25;5065372;28;20021;-78
2022/08/12 11:41:28;;;;;;;2.90;1.73;;;;;;;28.17;33.77;99175.47;5062945;28;20035;-78
2022/08/12 11:43:53;;;;;;;1.73;1.63;;;;;;;27.60;33.39;99181.47;5080014;28;20021;-78
2022/08/12 11:46:19;;;;;;;6.47;1.75;;;;;;;27.63;33.51;99122.38;5052492;28;20464;-79
2022/08/12 11:48:44;;;;;;;3.58;1.60;;;;;;;27.89;32.68;99180.25;5064078;28;20024;-79
2022/08/12 11:51:10;;;;;;;3.17;1.63;;;;;;;28.17;32.69;99175.47;5047482;28;20033;-78
2022/08/12 11:53:38;;;;;;;2.85;1.75;;;;;;;27.96;32.10;99169.41;5069352;28;20031;-79
2022/08/12 11:56:09;;;;;;;7.63;1.98;;;;;;;28.20;32.19;99175.53;5066857;28;20180;-78
2022/08/12 11:58:35;;;;;;;3.30;1.80;;;;;;;27.70;33.18;99161.72;5067164;28;20050;-78
2022/08/12 12:01:00;;;;;;;3.25;1.90;;;;;;;27.77;34.28;99106.25;5053296;28;20492;-78
2022/08/12 12:03:26;;;;;;;4.07;2.10;;;;;;;28.61;34.38;99156.88;5068956;28;20040;-78
2022/08/12 12:05:51;;;;;;;3.20;1.58;;;;;;;27.84;33.60;99150.31;5068230;28;20024;-78
2022/08/12 12:08:24;;;;;;;2.70;1.63;;;;;;;28.86;32.47;99160.94;5049886;28;20025;-79
2022/08/12 12:10:50;;;;;;;4.97;2.03;;;;;;;27.66;33.34;99160.03;5066207;28;20567;-78
2022/08/12 12:13:17;;;;;;;2.63;1.73;;;;;;;27.42;33.64;99139.06;5065261;28;20043;-79
2022/08/12 12:15:43;;;;;;;4.35;1.70;;;;;;;27.70;33.35;99137.03;5045419;28;20033;-78
2022/08/12 12:18:26;;;;;;;1.70;1.60;;;;;;;28.74;33.01;99161.91;5065686;28;20082;-78
2022/08/12 12:20:53;;;;;;;5.07;1.77;;;;;;;28.76;32.76;99137.59;5080351;28;20029;-79
2022/08/12 12:23:19;;;;;;;11.85;2.17;;;;;;;29.40;32.61;99158.13;5068864;28;20087;-79
2022/08/12 12:25:45;;;;;;;14.15;2.08;;;;;;;29.77;32.93;99139.13;5067848;28;20032;-78
2022/08/12 12:28:11;;;;;;;8.60;2.13;;;;;;;29.52;32.91;99147.72;5065388;28;20040;-79
2022/08/12 12:30:37;;;;;;;2.75;1.70;;;;;;;29.66;32.09;99147.19;5063782;28;20024;-79
2022/08/12 12:33:04;;;;;;;3.42;1.88;;;;;;;28.96;32.80;99143.09;5069118;28;20698;-79
2022/08/12 12:35:31;;;;;;;1.60;1.50;;;;;;;29.21;33.21;99149.88;5042375;28;20041;-78
2022/08/12 12:37:59;;;;;;;4.10;1.58;;;;;;;29.83;32.40;99140.41;5065708;28;20126;-79
2022/08/12 12:40:26;;;;;;;2.70;1.77;;;;;;;29.74;32.14;99123.31;5061374;28;20025;-79
2022/08/12 12:42:52;;;;;;;8.00;1.80;;;;;;;29.57;32.80;99133.63;5062824;28;20722;-79
2022/08/12 12:45:18;;;;;;;6.47;1.70;;;;;;;28.78;32.90;99131.72;5069832;28;20032;-79
2022/08/12 12:47:59;;;;;;;3.42;1.50;;;;;;;28.70;33.51;99130.00;5064461;28;20089;-78
2022/08/12 12:50:27;;;;;;;1.73;1.40;;;;;;;29.08;32.84;99124.47;5061834;28;20188;-79
2022/08/12 12:52:53;;;;;;;3.30;1.45;;;;;;;28.25;34.57;99133.28;5067189;28;20472;-78
2022/08/12 12:55:20;;;;;;;2.15;1.75;;;;;;;28.34;34.31;99127.59;5062070;28;20082;-79
2022/08/12 12:57:45;;;;;;;6.07;1.80;;;;;;;28.61;34.30;99127.47;5061494;28;20107;-79
2022/08/12 13:00:16;;;;;;;3.03;1.60;;;;;;;29.10;33.59;99127.66;5076252;28;20994;-79
2022/08/12 13:02:54;;;;;;;4.85;1.63;;;;;;;29.31;33.64;99143.78;5065372;28;20024;-79
2022/08/12 13:05:31;;;;;;;4.18;1.35;;;;;;;29.20;33.36;99121.59;5062821;28;20027;-79
2022/08/12 13:07:59;;;;;;;2.35;1.50;;;;;;;30.29;32.68;99120.69;5069026;28;20621;-79
2022/08/12 13:10:26;;;;;;;8.57;1.42;;;;;;;29.85;32.74;99130.63;5064546;28;20131;-80
2022/08/12 13:12:52;;;;;;;3.97;1.27;;;;;;;29.49;32.72;99114.63;5058788;28;20048;-79
2022/08/12 13:15:18;;;;;;;3.13;1.15;;;;;;;30.28;32.25;99132.84;5061050;28;20032;-80
2022/08/12 13:17:49;;;;;;;18.23;1.90;;;;;;;31.34;30.82;99119.63;5078600;28;20093;-79
2022/08/12 13:20:19;;;;;;;6.60;1.35;;;;;;;31.02;31.16;99100.75;5067794;28;20308;-79
2022/08/12 13:22:45;;;;;;;3.83;1.40;;;;;;;30.43;31.56;99113.81;5061160;28;20097;-79
2022/08/12 13:25:18;;;;;;;3.28;1.00;;;;;;;30.10;31.24;99115.25;5064876;28;20032;-79
2022/08/12 13:27:46;;;;;;;8.00;1.40;;;;;;;30.30;31.00;99115.94;5064722;28;20154;-80